Time;durP1;ratioP1;P1;durP2;ratioP2;P2;SDS_P1;SDS_P2;PMS_P1;PMS_P2;Temp;Humidity;BMP_temperature;BMP_pressure;BME280_temperature;BME280_humidity;BME280_pressure;Samples;Min_cycle;Max_cycle;Signal;HPM_P1;HPM_P2
2023/01/28 00:01:09;;;;;;;;;;;;;;;3.04;89.21;102842.50;5005050;28;19974;-60
2023/01/28 00:03:34;;;;;;;;;;;;;;;3.26;87.63;102836.06;5005528;28;20016;-62
2023/01/28 00:06:03;;;;;;;;;;;;;;;2.71;90.68;102842.66;5004471;28;20079;-60
2023/01/28 00:08:29;;;;;;;;;;;;;;;3.36;87.48;102850.56;5008048;28;19922;-60
2023/01/28 00:10:57;;;;;;;;;;;;;;;3.26;88.34;102846.06;5005782;28;19928;-62
2023/01/28 00:13:22;;;;;;;;;;;;;;;3.18;86.66;102852.16;5006998;28;19921;-64
2023/01/28 00:15:53;;;;;;;;;;;;;;;3.19;87.29;102855.72;5005187;28;19929;-63
2023/01/28 00:18:19;;;;;;;;;;;;;;;2.81;88.48;102865.31;5006203;28;19922;-62
2023/01/28 00:20:54;;;;;;;;;;;;;;;2.93;87.53;102868.84;5005912;28;19968;-61
2023/01/28 00:23:19;;;;;;;;;;;;;;;3.33;86.13;102860.81;5007355;28;19978;-60
2023/01/28 00:25:44;;;;;;;;;;;;;;;3.11;86.23;102854.53;5005875;28;19941;-62
2023/01/28 00:28:10;;;;;;;;;;;;;;;2.69;88.65;102864.53;5003924;28;20023;-62
2023/01/28 00:30:35;;;;;;;;;;;;;;;2.55;90.10;102853.97;5009889;28;19921;-61
2023/01/28 00:33:01;;;;;;;;;;;;;;;2.50;90.56;102864.34;5007749;28;19918;-61
2023/01/28 00:35:26;;;;;;;;;;;;;;;2.48;91.38;102874.44;5009739;28;20025;-60
2023/01/28 00:37:51;;;;;;;;;;;;;;;2.47;91.65;102868.16;5008113;28;19922;-62
2023/01/28 00:40:16;;;;;;;;;;;;;;;2.47;91.86;102870.84;5010586;28;19921;-63
2023/01/28 00:42:42;;;;;;;;;;;;;;;2.48;92.48;102871.72;5009415;28;20015;-62
2023/01/28 00:45:07;;;;;;;;;;;;;;;2.44;92.63;102868.44;5008526;28;20021;-60
2023/01/28 00:47:32;;;;;;;;;;;;;;;2.45;92.89;102872.84;5008846;28;19960;-62
2023/01/28 00:49:57;;;;;;;;;;;;;;;2.95;88.67;102873.16;5009802;28;19968;-60
2023/01/28 00:52:23;;;;;;;;;;;;;;;2.72;89.37;102868.81;5008496;28;19957;-60
2023/01/28 00:54:48;;;;;;;;;;;;;;;2.97;87.03;102865.72;5005683;28;19961;-61
2023/01/28 00:57:13;;;;;;;;;;;;;;;2.72;89.64;102880.50;5007550;28;19918;-60
2023/01/28 00:59:38;;;;;;;;;;;;;;;2.52;90.61;102879.47;5009854;28;19917;-63
2023/01/28 01:02:11;;;;;;;;;;;;;;;2.49;91.24;102884.31;5004189;28;20453;-61
2023/01/28 01:04:36;;;;;;;;;;;;;;;2.61;91.68;102877.84;5007662;28;19925;-61
2023/01/28 01:07:01;;;;;;;;;;;;;;;2.55;90.85;102881.94;5010029;28;19922;-61
2023/01/28 01:09:26;;;;;;;;;;;;;;;2.44;91.68;102879.28;5009523;28;19949;-61
2023/01/28 01:11:52;;;;;;;;;;;;;;;2.46;91.97;102873.72;5004729;28;19925;-61
2023/01/28 01:14:17;;;;;;;;;;;;;;;2.59;91.56;102877.13;5010330;28;20491;-61
2023/01/28 01:16:42;;;;;;;;;;;;;;;2.46;92.40;102880.00;5005440;28;19952;-60
2023/01/28 01:19:08;;;;;;;;;;;;;;;3.03;89.48;102869.75;5009730;28;19944;-63
2023/01/28 01:21:33;;;;;;;;;;;;;;;2.64;90.26;102874.03;5009218;28;19972;-62
2023/01/28 01:23:58;;;;;;;;;;;;;;;2.50;91.06;102875.19;5008309;28;20361;-60
2023/01/28 01:26:26;;;;;;;;;;;;;;;2.41;91.69;102876.81;5007592;28;19967;-61
2023/01/28 01:28:51;;;;;;;;;;;;;;;2.75;89.14;102868.56;5008646;28;19922;-61
2023/01/28 01:31:18;;;;;;;;;;;;;;;2.53;90.17;102870.34;5006645;28;20364;-61
2023/01/28 01:33:44;;;;;;;;;;;;;;;2.39;91.55;102862.53;5008731;28;19928;-61
2023/01/28 01:36:11;;;;;;;;;;;;;;;3.05;87.49;102862.38;5004182;28;19922;-61
2023/01/28 01:38:36;;;;;;;;;;;;;;;2.80;88.02;102863.59;5006549;28;19929;-60
2023/01/28 01:41:03;;;;;;;;;;;;;;;2.74;89.17;102872.28;5007473;28;19932;-60
2023/01/28 01:43:47;;;;;;;;;;;;;;;2.39;90.56;102878.78;5009886;28;20762;-60
2023/01/28 01:46:14;;;;;;;;;;;;;;;2.39;90.60;102878.78;5007749;28;19929;-61
2023/01/28 01:48:40;;;;;;;;;;;;;;;2.32;91.62;102873.00;5006519;28;19921;-61
2023/01/28 01:51:18;;;;;;;;;;;;;;;2.29;92.04;102880.53;5009678;28;19963;-60
2023/01/28 01:53:45;;;;;;;;;;;;;;;2.28;91.94;102881.50;5009477;28;19918;-64
2023/01/28 01:56:13;;;;;;;;;;;;;;;2.28;92.28;102876.97;5000340;28;20383;-60
2023/01/28 01:58:41;;;;;;;;;;;;;;;2.29;92.37;102877.84;5007085;28;19921;-65
2023/01/28 02:01:06;;;;;;;;;;;;;;;2.29;93.15;102880.53;5006273;28;19921;-62
2023/01/28 02:03:44;;;;;;;;;;;;;;;2.70;91.60;102881.66;5006448;28;19982;-61
2023/01/28 02:06:09;;;;;;;;;;;;;;;2.31;92.04;102878.56;5008153;28;19971;-61
2023/01/28 02:08:34;;;;;;;;;;;;;;;2.28;92.20;102890.53;5008962;28;19980;-64
2023/01/28 02:11:01;;;;;;;;;;;;;;;2.26;92.46;102878.06;5016717;28;20327;-61
2023/01/28 02:13:56;;;;;;;;;;;;;;;2.25;92.66;102888.06;5002580;28;20020;-63
2023/01/28 02:16:22;;;;;;;;;;;;;;;2.25;92.74;102887.19;4997476;28;19926;-63
2023/01/28 02:18:47;;;;;;;;;;;;;;;2.38;91.96;102889.75;5006902;28;19967;-64
2023/01/28 02:21:31;;;;;;;;;;;;;;;2.25;92.38;102888.06;5006970;28;19929;-62
2023/01/28 02:24:20;;;;;;;;;;;;;;;2.70;90.24;102877.09;5007772;28;20326;-62
2023/01/28 02:26:55;;;;;;;;;;;;;;;2.34;90.94;102884.59;5005850;28;19963;-61
2023/01/28 02:29:34;;;;;;;;;;;;;;;2.26;91.85;102886.22;5007880;28;19957;-61
2023/01/28 02:31:59;;;;;;;;;;;;;;;2.24;92.02;102880.06;5007447;28;19921;-62
2023/01/28 02:34:44;;;;;;;;;;;;;;;2.23;91.88;102883.72;5007789;28;19941;-61
2023/01/28 02:37:12;;;;;;;;;;;;;;;2.22;92.55;102882.03;5006888;28;19927;-62
2023/01/28 02:39:41;;;;;;;;;;;;;;;2.66;89.83;102885.59;5006162;28;20000;-61
2023/01/28 02:42:09;;;;;;;;;;;;;;;2.21;90.81;102875.75;4991686;28;19921;-61
2023/01/28 02:44:34;;;;;;;;;;;;;;;2.19;91.44;102882.28;5007846;28;19921;-60
2023/01/28 02:49:48;;;;;;;;;;;;;;;2.28;89.88;102882.41;5006760;28;19925;-61
2023/01/28 02:52:13;;;;;;;;;;;;;;;2.82;85.97;102886.03;5006791;28;20021;-60
2023/01/28 02:54:57;;;;;;;;;;;;;;;2.41;87.05;102889.50;5007126;28;19973;-61
2023/01/28 02:57:25;;;;;;;;;;;;;;;2.45;86.09;102878.28;5003768;28;19929;-61
2023/01/28 02:59:57;;;;;;;;;;;;;;;2.60;84.19;102882.41;5007624;28;20316;-60
2023/01/28 03:02:28;;;;;;;;;;;;;;;2.25;87.05;102888.06;5008325;28;19921;-64
2023/01/28 03:05:01;;;;;;;;;;;;;;;2.62;86.25;102890.41;5005841;28;19921;-64
2023/01/28 03:07:28;;;;;;;;;;;;;;;2.46;83.78;102895.41;5003461;28;19925;-61
2023/01/28 03:09:57;;;;;;;;;;;;;;;2.27;86.85;102893.34;5004663;28;19932;-60
2023/01/28 03:37:37;;;;;;;;;;;;;;;2.15;91.86;102889.81;5006628;28;19928;-61
2023/01/28 03:40:06;;;;;;;;;;;;;;;2.16;91.72;102890.66;5003905;28;20346;-62
2023/01/28 03:42:31;;;;;;;;;;;;;;;2.14;92.14;102896.22;4988103;28;19968;-60
2023/01/28 03:44:57;;;;;;;;;;;;;;;2.10;91.96;102891.16;4993812;28;19926;-64
2023/01/28 03:47:27;;;;;;;;;;;;;;;2.10;92.74;102883.03;5003086;28;19921;-60
2023/01/28 03:49:53;;;;;;;;;;;;;;;2.07;92.84;102885.00;5006168;28;19921;-61
2023/01/28 03:52:20;;;;;;;;;;;;;;;2.07;92.96;102890.41;5002252;28;19929;-62
2023/01/28 03:54:48;;;;;;;;;;;;;;;2.04;93.00;102893.38;5005961;28;19929;-61
2023/01/28 03:57:14;;;;;;;;;;;;;;;2.05;93.00;102902.38;5005942;28;19922;-61
2023/01/28 03:59:40;;;;;;;;;;;;;;;2.05;93.07;102900.53;5002560;28;19929;-65
2023/01/28 04:02:06;;;;;;;;;;;;;;;2.04;93.23;102900.66;5003633;28;19921;-61
2023/01/28 04:04:31;;;;;;;;;;;;;;;2.04;93.47;102909.66;5010753;28;19925;-60
2023/01/28 04:06:57;;;;;;;;;;;;;;;2.02;93.39;102919.72;5010253;28;20332;-63
2023/01/28 04:09:22;;;;;;;;;;;;;;;2.03;93.32;102924.19;5011389;28;19922;-60
2023/01/28 04:11:48;;;;;;;;;;;;;;;2.01;93.67;102920.72;5009256;28;19925;-62
2023/01/28 04:14:14;;;;;;;;;;;;;;;2.00;93.37;102924.44;5010471;28;19921;-63
2023/01/28 04:16:39;;;;;;;;;;;;;;;2.03;93.41;102926.91;5008921;28;19921;-62
2023/01/28 04:19:04;;;;;;;;;;;;;;;2.04;93.45;102923.19;5012051;28;19918;-61
2023/01/28 04:21:29;;;;;;;;;;;;;;;2.04;93.49;102919.63;5011147;28;19918;-60
2023/01/28 04:23:55;;;;;;;;;;;;;;;2.04;93.47;102911.50;5011269;28;19917;-63
2023/01/28 04:26:20;;;;;;;;;;;;;;;2.03;93.66;102917.91;5007770;28;19921;-63
2023/01/28 04:28:45;;;;;;;;;;;;;;;2.04;93.97;102916.91;5009881;28;20369;-63
2023/01/28 04:31:10;;;;;;;;;;;;;;;2.02;93.52;102919.72;5008822;28;19925;-60
2023/01/28 04:33:36;;;;;;;;;;;;;;;2.01;93.65;102918.00;5010446;28;19972;-63
2023/01/28 04:36:01;;;;;;;;;;;;;;;1.99;93.42;102905.59;5010381;28;20368;-61
2023/01/28 04:38:26;;;;;;;;;;;;;;;1.96;93.67;102909.41;5010624;28;19925;-61
2023/01/28 04:40:52;;;;;;;;;;;;;;;1.96;93.67;102911.25;5008885;28;19921;-63
2023/01/28 04:43:18;;;;;;;;;;;;;;;1.95;93.90;102907.69;5009249;28;19926;-63
2023/01/28 04:45:43;;;;;;;;;;;;;;;1.94;93.69;102905.97;5006979;28;20293;-62
2023/01/28 04:48:09;;;;;;;;;;;;;;;1.93;93.88;102914.22;5009484;28;19929;-61
2023/01/28 04:50:34;;;;;;;;;;;;;;;1.94;93.95;102916.81;5009861;28;19921;-62
2023/01/28 04:52:59;;;;;;;;;;;;;;;1.95;94.38;102913.09;5009364;28;19926;-60
2023/01/28 04:55:24;;;;;;;;;;;;;;;1.96;94.12;102924.78;5009045;28;19925;-60
2023/01/28 04:57:50;;;;;;;;;;;;;;;1.97;94.18;102921.09;5008548;28;19921;-61
2023/01/28 05:00:15;;;;;;;;;;;;;;;1.94;94.18;102916.81;5009203;28;19921;-60
2023/01/28 05:02:40;;;;;;;;;;;;;;;1.93;93.83;102925.91;5009076;28;19921;-61
2023/01/28 05:05:07;;;;;;;;;;;;;;;1.92;93.63;102926.88;5003450;28;19944;-60
2023/01/28 05:07:33;;;;;;;;;;;;;;;1.90;93.52;102933.44;5008809;28;19922;-62
2023/01/28 05:09:58;;;;;;;;;;;;;;;1.87;93.52;102920.97;5007705;28;19929;-60
2023/01/28 05:12:23;;;;;;;;;;;;;;;1.84;93.64;102923.09;5008307;28;19925;-64
2023/01/28 05:14:48;;;;;;;;;;;;;;;1.87;94.26;102939.94;5007631;28;20391;-64
2023/01/28 05:17:13;;;;;;;;;;;;;;;1.89;93.77;102937.97;5003608;28;19929;-60
2023/01/28 05:19:39;;;;;;;;;;;;;;;1.89;93.91;102940.69;5003879;28;19971;-63
2023/01/28 05:22:04;;;;;;;;;;;;;;;1.91;93.86;102932.44;5008108;28;19921;-60
2023/01/28 05:24:29;;;;;;;;;;;;;;;1.87;93.52;102931.81;5010145;28;19917;-62
2023/01/28 05:26:54;;;;;;;;;;;;;;;1.88;93.68;102928.13;5008453;28;20276;-60
2023/01/28 05:29:19;;;;;;;;;;;;;;;1.84;91.35;102923.94;5009623;28;19921;-60
2023/01/28 05:31:46;;;;;;;;;;;;;;;2.60;83.94;102920.41;5007979;28;19921;-61
2023/01/28 05:34:11;;;;;;;;;;;;;;;2.13;86.08;102913.47;5008529;28;20004;-60
2023/01/28 05:36:36;;;;;;;;;;;;;;;2.08;83.63;102911.13;5008725;28;20076;-63
2023/01/28 05:39:01;;;;;;;;;;;;;;;1.97;84.70;102912.97;5005709;28;19924;-62
2023/01/28 05:41:26;;;;;;;;;;;;;;;2.40;81.41;102910.34;5006482;28;19937;-61
2023/01/28 05:43:52;;;;;;;;;;;;;;;2.50;77.84;102903.16;5008274;28;19928;-60
2023/01/28 05:46:17;;;;;;;;;;;;;;;2.32;79.19;102897.41;5005477;28;20385;-59
2023/01/28 05:48:42;;;;;;;;;;;;;;;1.89;82.20;102910.88;5008161;28;20004;-63
2023/01/28 05:51:07;;;;;;;;;;;;;;;1.78;83.94;102919.03;5007697;28;19917;-61
2023/01/28 05:53:32;;;;;;;;;;;;;;;1.73;84.96;102913.97;5009045;28;19928;-60
2023/01/28 05:55:58;;;;;;;;;;;;;;;1.72;85.47;102923.06;5006547;28;19926;-60
2023/01/28 05:58:23;;;;;;;;;;;;;;;1.71;86.43;102929.47;5008174;28;19924;-63
2023/01/28 06:00:48;;;;;;;;;;;;;;;1.73;86.67;102924.81;5006793;28;19921;-60
2023/01/28 06:03:13;;;;;;;;;;;;;;;1.89;85.83;102929.00;5007273;28;19990;-61
2023/01/28 06:05:39;;;;;;;;;;;;;;;1.80;86.27;102925.16;5006095;28;19930;-61
2023/01/28 06:08:04;;;;;;;;;;;;;;;2.11;82.03;102933.53;5005251;28;19922;-60
2023/01/28 06:10:29;;;;;;;;;;;;;;;1.76;84.95;102934.50;4999141;28;19921;-60
2023/01/28 06:12:55;;;;;;;;;;;;;;;2.14;83.14;102917.91;5007392;28;19928;-60
2023/01/28 06:15:20;;;;;;;;;;;;;;;1.82;83.61;102925.91;5006024;28;19960;-63
2023/01/28 06:17:45;;;;;;;;;;;;;;;1.89;83.14;102929.84;5006082;28;20031;-62
2023/01/28 06:20:10;;;;;;;;;;;;;;;1.70;84.90;102933.16;5007556;28;19929;-60
2023/01/28 06:22:36;;;;;;;;;;;;;;;1.66;85.49;102928.09;5008325;28;19922;-60
2023/01/28 06:25:01;;;;;;;;;;;;;;;1.66;86.24;102930.81;5007069;28;19921;-59
2023/01/28 06:27:26;;;;;;;;;;;;;;;1.71;86.17;102934.00;5006476;28;19925;-63
2023/01/28 06:29:52;;;;;;;;;;;;;;;1.62;85.29;102926.63;5006197;28;19925;-61
2023/01/28 06:32:17;;;;;;;;;;;;;;;1.60;85.96;102934.00;4999587;28;19975;-61
2023/01/28 06:34:42;;;;;;;;;;;;;;;1.79;85.63;102937.84;5004397;28;20016;-59
2023/01/28 06:37:08;;;;;;;;;;;;;;;1.60;86.58;102934.00;5007061;28;20296;-61
2023/01/28 06:39:33;;;;;;;;;;;;;;;1.59;87.12;102935.00;5006673;28;20344;-60
2023/01/28 06:41:58;;;;;;;;;;;;;;;1.59;87.20;102940.41;5007632;28;19928;-60
2023/01/28 06:44:24;;;;;;;;;;;;;;;2.01;83.16;102936.13;5006558;28;20315;-60
2023/01/28 06:46:49;;;;;;;;;;;;;;;1.67;84.28;102944.22;5004931;28;20391;-63
2023/01/28 06:49:14;;;;;;;;;;;;;;;1.56;85.27;102947.78;5006359;28;19928;-61
2023/01/28 06:51:39;;;;;;;;;;;;;;;1.54;85.92;102944.34;5006849;28;19921;-59
2023/01/28 06:54:05;;;;;;;;;;;;;;;2.20;81.39;102927.38;5007463;28;20395;-60
2023/01/28 06:56:30;;;;;;;;;;;;;;;1.72;82.47;102936.59;5003833;28;19968;-64
2023/01/28 06:58:55;;;;;;;;;;;;;;;2.38;79.60;102935.84;5006313;28;19922;-61
2023/01/28 07:01:20;;;;;;;;;;;;;;;2.57;75.70;102931.50;5004492;28;20012;-61
2023/01/28 07:03:45;;;;;;;;;;;;;;;1.64;81.56;102946.34;5002920;28;19980;-60
2023/01/28 07:06:11;;;;;;;;;;;;;;;1.52;81.96;102948.13;5002783;28;19929;-62
2023/01/28 07:08:36;;;;;;;;;;;;;;;1.45;83.11;102952.31;5004733;28;20004;-64
2023/01/28 07:11:02;;;;;;;;;;;;;;;1.45;83.71;102950.47;5007892;28;20011;-61
2023/01/28 07:13:28;;;;;;;;;;;;;;;1.54;82.17;102957.88;5007177;28;19921;-60
2023/01/28 07:15:53;;;;;;;;;;;;;;;1.43;83.70;102959.72;5005845;28;19917;-63
2023/01/28 07:18:18;;;;;;;;;;;;;;;1.43;84.33;102963.28;5008060;28;19924;-61
2023/01/28 07:20:43;;;;;;;;;;;;;;;1.43;84.98;102981.38;5008083;28;20008;-60
2023/01/28 07:23:09;;;;;;;;;;;;;;;1.45;85.41;102974.84;5004379;28;19984;-63
2023/01/28 07:25:34;;;;;;;;;;;;;;;1.47;85.69;102972.91;5008225;28;19926;-60
2023/01/28 07:27:59;;;;;;;;;;;;;;;1.46;85.65;102979.25;5006024;28;20272;-62
2023/01/28 07:30:24;;;;;;;;;;;;;;;1.47;86.32;102983.72;5006750;28;19925;-61
2023/01/28 07:32:53;;;;;;;;;;;;;;;1.47;86.39;102983.72;5007850;28;20325;-61
2023/01/28 07:35:19;;;;;;;;;;;;;;;1.49;86.86;102989.88;5003899;28;19922;-64
2023/01/28 07:37:49;;;;;;;;;;;;;;;1.62;85.51;102988.91;5007047;28;19918;-62
2023/01/28 07:40:14;;;;;;;;;;;;;;;1.52;86.16;102992.34;5008114;28;20331;-61
2023/01/28 07:42:41;;;;;;;;;;;;;;;2.20;79.14;102989.72;5007317;28;19925;-61
2023/01/28 07:45:06;;;;;;;;;;;;;;;1.54;83.52;102994.94;5005140;28;20420;-67
2023/01/28 07:47:32;;;;;;;;;;;;;;;1.52;84.67;102995.06;5007675;28;19927;-61
2023/01/28 07:49:57;;;;;;;;;;;;;;;1.51;84.53;102989.75;5007081;28;20423;-60
2023/01/28 07:52:22;;;;;;;;;;;;;;;1.51;85.09;102996.03;5007576;28;20012;-61
2023/01/28 07:54:47;;;;;;;;;;;;;;;1.53;85.39;102995.94;5005632;28;20028;-60
2023/01/28 07:57:13;;;;;;;;;;;;;;;1.92;82.01;102989.19;5005863;28;20287;-61
2023/01/28 07:59:38;;;;;;;;;;;;;;;1.65;82.97;102988.69;5006772;28;19914;-65
2023/01/28 08:02:03;;;;;;;;;;;;;;;1.89;81.09;102983.19;5002137;28;19921;-60
2023/01/28 08:04:29;;;;;;;;;;;;;;;1.63;81.84;102993.38;5005850;28;20117;-61
2023/01/28 08:06:55;;;;;;;;;;;;;;;1.53;83.29;102994.06;5004988;28;20003;-61
2023/01/28 08:09:21;;;;;;;;;;;;;;;1.65;82.33;102992.25;5004589;28;19928;-60
2023/01/28 08:11:46;;;;;;;;;;;;;;;1.68;82.60;103000.16;5005136;28;19917;-61
2023/01/28 08:14:11;;;;;;;;;;;;;;;1.59;83.16;103008.13;5002936;28;20297;-61
2023/01/28 08:16:37;;;;;;;;;;;;;;;1.59;83.70;103008.13;5006334;28;19945;-60
2023/01/28 08:19:02;;;;;;;;;;;;;;;1.60;84.30;103015.25;5005524;28;19917;-61
2023/01/28 08:21:27;;;;;;;;;;;;;;;1.62;84.81;103024.97;5005645;28;20277;-60
2023/01/28 08:23:53;;;;;;;;;;;;;;;1.70;84.57;103032.53;5003855;28;19967;-61
2023/01/28 08:26:18;;;;;;;;;;;;;;;1.68;85.28;103023.66;5005001;28;20332;-60
2023/01/28 08:28:43;;;;;;;;;;;;;;;1.70;85.43;103029.81;5005052;28;19917;-60
2023/01/28 08:31:09;;;;;;;;;;;;;;;1.72;85.68;103034.13;5005503;28;19917;-63
2023/01/28 08:33:34;;;;;;;;;;;;;;;1.75;85.84;103033.88;5004144;28;19952;-61
2023/01/28 08:36:03;;;;;;;;;;;;;;;1.79;85.92;103026.41;5003400;28;19922;-62
2023/01/28 08:38:28;;;;;;;;;;;;;;;2.02;83.36;103038.13;5005997;28;19929;-61
2023/01/28 08:40:54;;;;;;;;;;;;;;;1.91;84.03;103046.25;5004498;28;19918;-63
2023/01/28 08:43:20;;;;;;;;;;;;;;;1.88;84.81;103041.09;5005369;28;20014;-64
2023/01/28 08:45:45;;;;;;;;;;;;;;;1.90;85.33;103039.09;5003904;28;19992;-61
2023/01/28 08:48:13;;;;;;;;;;;;;;;1.93;85.67;103039.72;5008918;28;20392;-63
2023/01/28 08:50:39;;;;;;;;;;;;;;;1.93;85.69;103039.72;5008761;28;20296;-63
2023/01/28 08:53:05;;;;;;;;;;;;;;;1.95;85.92;103047.72;5008564;28;19921;-61
2023/01/28 08:55:32;;;;;;;;;;;;;;;1.96;85.79;103047.59;5008767;28;19917;-61
2023/01/28 08:58:00;;;;;;;;;;;;;;;1.98;86.14;103052.94;5007909;28;19917;-65
2023/01/28 09:00:25;;;;;;;;;;;;;;;1.99;86.02;103051.94;5007620;28;19968;-62
2023/01/28 09:02:51;;;;;;;;;;;;;;;2.03;86.04;103043.44;5008057;28;19980;-61
2023/01/28 09:05:17;;;;;;;;;;;;;;;2.04;86.27;103047.00;5007609;28;20059;-60
2023/01/28 09:07:42;;;;;;;;;;;;;;;2.02;86.38;103049.81;5008304;28;20004;-62
2023/01/28 09:10:08;;;;;;;;;;;;;;;2.02;85.99;103060.66;5008961;28;20443;-62
2023/01/28 09:12:33;;;;;;;;;;;;;;;1.99;86.16;103062.78;5007765;28;19917;-61
2023/01/28 09:14:58;;;;;;;;;;;;;;;1.96;85.88;103068.41;5005424;28;19921;-61
2023/01/28 09:17:23;;;;;;;;;;;;;;;1.92;85.27;103072.34;5008679;28;19917;-64
2023/01/28 09:19:49;;;;;;;;;;;;;;;1.88;86.25;103074.47;5008466;28;19914;-60
2023/01/28 09:22:14;;;;;;;;;;;;;;;1.84;84.82;103062.13;5008030;28;20008;-60
2023/01/28 09:24:39;;;;;;;;;;;;;;;2.24;81.08;103075.25;5007757;28;19929;-60
2023/01/28 09:27:05;;;;;;;;;;;;;;;2.11;81.14;103069.06;5007787;28;19940;-64
2023/01/28 09:29:32;;;;;;;;;;;;;;;1.89;82.59;103081.59;5007208;28;19924;-61
2023/01/28 09:31:57;;;;;;;;;;;;;;;1.84;84.06;103082.94;5008052;28;20004;-64
2023/01/28 09:34:22;;;;;;;;;;;;;;;2.14;82.82;103077.84;5008904;28;20040;-61
2023/01/28 09:36:47;;;;;;;;;;;;;;;1.90;82.87;103096.88;5006802;28;19932;-61
2023/01/28 09:39:13;;;;;;;;;;;;;;;1.83;84.06;103092.91;5008183;28;19917;-60
2023/01/28 09:41:44;;;;;;;;;;;;;;;1.89;84.42;103097.84;5007627;28;20021;-66
2023/01/28 09:44:28;;;;;;;;;;;;;;;1.93;83.48;103087.66;5007550;28;20027;-61
2023/01/28 09:46:59;;;;;;;;;;;;;;;1.97;84.76;103089.97;5007299;28;19954;-60
2023/01/28 09:49:33;;;;;;;;;;;;;;;2.05;84.57;103097.53;5007503;28;19925;-62
2023/01/28 09:51:59;;;;;;;;;;;;;;;2.15;84.57;103092.25;5007581;28;19929;-62
2023/01/28 09:54:43;;;;;;;;;;;;;;;2.11;83.53;103088.91;5008275;28;19988;-61
2023/01/28 09:57:17;;;;;;;;;;;;;;;2.12;84.56;103089.75;5007694;28;20016;-66
2023/01/28 09:59:42;;;;;;;;;;;;;;;2.14;84.58;103096.81;5006059;28;19917;-62
2023/01/28 10:02:22;;;;;;;;;;;;;;;2.18;84.31;103105.53;5002476;28;20293;-62
2023/01/28 10:04:53;;;;;;;;;;;;;;;2.15;84.61;103116.66;4989864;28;19972;-61
2023/01/28 10:07:24;;;;;;;;;;;;;;;2.13;82.27;103110.47;5005625;28;20410;-60
2023/01/28 10:09:58;;;;;;;;;;;;;;;1.99;83.24;103112.41;5009093;28;19925;-61
2023/01/28 10:12:41;;;;;;;;;;;;;;;1.97;83.65;103114.38;5008422;28;19943;-60
2023/01/28 10:15:21;;;;;;;;;;;;;;;1.98;83.91;103113.41;5008294;28;19921;-60
2023/01/28 10:17:48;;;;;;;;;;;;;;;2.01;84.68;103121.28;5009021;28;19917;-61
2023/01/28 10:20:14;;;;;;;;;;;;;;;2.03;84.99;103113.06;5009200;28;19918;-60
2023/01/28 10:22:52;;;;;;;;;;;;;;;2.08;84.97;103114.41;5008912;28;19941;-64
2023/01/28 10:25:19;;;;;;;;;;;;;;;2.10;83.63;103119.72;5008399;28;19945;-60
2023/01/28 10:27:45;;;;;;;;;;;;;;;2.16;84.44;103115.66;5007871;28;19918;-62
2023/01/28 10:30:16;;;;;;;;;;;;;;;2.14;84.42;103110.38;5008100;28;19921;-60
2023/01/28 10:32:44;;;;;;;;;;;;;;;2.15;85.02;103109.38;5008519;28;19922;-60
2023/01/28 10:35:10;;;;;;;;;;;;;;;2.18;84.35;103105.53;5008643;28;19964;-60
2023/01/28 10:37:36;;;;;;;;;;;;;;;2.21;84.14;103113.44;5008240;28;19968;-61
2023/01/28 10:40:02;;;;;;;;;;;;;;;2.78;80.09;103098.94;5008426;28;20288;-61
2023/01/28 10:42:29;;;;;;;;;;;;;;;2.21;82.90;103099.88;5008156;28;19922;-61
2023/01/28 10:45:14;;;;;;;;;;;;;;;2.18;83.52;103097.41;5006555;28;19972;-60
2023/01/28 10:47:49;;;;;;;;;;;;;;;2.21;83.73;103102.59;5006843;28;19917;-62
2023/01/28 10:50:21;;;;;;;;;;;;;;;2.23;83.50;103090.66;5008797;28;19940;-63
2023/01/28 10:52:53;;;;;;;;;;;;;;;2.26;83.48;103105.81;5008328;28;20014;-62
2023/01/28 10:55:18;;;;;;;;;;;;;;;2.29;84.06;103098.31;5007088;28;20265;-60
2023/01/28 10:57:43;;;;;;;;;;;;;;;2.26;84.06;103097.69;5006982;28;19922;-61
2023/01/28 11:00:32;;;;;;;;;;;;;;;2.27;84.71;103110.25;5007737;28;20337;-63
2023/01/28 11:02:58;;;;;;;;;;;;;;;2.27;84.95;103102.13;5008175;28;20024;-61
2023/01/28 11:05:26;;;;;;;;;;;;;;;2.26;84.30;103108.53;5007954;28;20008;-62
2023/01/28 11:08:01;;;;;;;;;;;;;;;2.28;84.98;103093.00;5007995;28;20060;-61
2023/01/28 11:10:32;;;;;;;;;;;;;;;2.80;78.89;103080.69;5008312;28;19929;-61
2023/01/28 11:12:58;;;;;;;;;;;;;;;2.41;79.39;103079.34;5007339;28;19918;-60
2023/01/28 11:15:23;;;;;;;;;;;;;;;2.27;79.90;103086.69;5006261;28;19928;-61
2023/01/28 11:17:53;;;;;;;;;;;;;;;2.30;79.91;103083.75;5007933;28;20292;-65
2023/01/28 11:20:21;;;;;;;;;;;;;;;2.39;78.76;103084.88;5008580;28;19924;-60
2023/01/28 11:22:47;;;;;;;;;;;;;;;2.58;77.86;103068.84;5007075;28;19984;-63
2023/01/28 11:25:17;;;;;;;;;;;;;;;2.74;76.41;103059.50;5006663;28;19928;-60
2023/01/28 11:27:46;;;;;;;;;;;;;;;2.72;76.07;103064.16;5007081;28;19924;-61
2023/01/28 11:30:19;;;;;;;;;;;;;;;2.92;73.89;103055.25;5005494;28;19929;-62
2023/01/28 11:32:45;;;;;;;;;;;;;;;2.29;78.01;103056.78;5007114;28;19928;-62
2023/01/28 11:35:23;;;;;;;;;;;;;;;2.98;74.46;103049.31;5008139;28;19917;-60
2023/01/28 11:37:48;;;;;;;;;;;;;;;2.44;76.78;103055.56;5007546;28;19918;-63
2023/01/28 11:40:19;;;;;;;;;;;;;;;2.41;78.31;103049.50;5007534;28;19945;-61
2023/01/28 11:42:45;;;;;;;;;;;;;;;2.45;78.83;103038.28;5007118;28;19921;-60
2023/01/28 11:45:15;;;;;;;;;;;;;;;2.64;78.97;103039.53;5007252;28;19922;-61
2023/01/28 11:47:48;;;;;;;;;;;;;;;2.92;77.84;103022.69;5007814;28;20016;-64
2023/01/28 11:50:17;;;;;;;;;;;;;;;3.19;77.98;103007.78;5007801;28;19972;-61
2023/01/28 11:52:54;;;;;;;;;;;;;;;3.78;75.70;102985.50;5006365;28;19922;-64
2023/01/28 11:55:19;;;;;;;;;;;;;;;4.31;74.38;102979.88;5007984;28;19918;-60
2023/01/28 11:57:53;;;;;;;;;;;;;;;5.19;72.31;102954.56;5007293;28;19986;-62
2023/01/28 12:00:30;;;;;;;;;;;;;;;6.22;72.99;102953.78;5005963;28;20269;-61
2023/01/28 12:03:03;;;;;;;;;;;;;;;7.54;66.30;102938.59;5002341;28;20690;-60
2023/01/28 12:05:49;;;;;;;;;;;;;;;8.45;60.59;102952.66;5007103;28;20197;-61
2023/01/28 12:08:19;;;;;;;;;;;;;;;8.30;56.12;102959.75;5007650;28;19918;-60
2023/01/28 12:10:47;;;;;;;;;;;;;;;8.94;59.42;102949.22;5006247;28;19928;-61
2023/01/28 12:13:28;;;;;;;;;;;;;;;8.94;55.91;102941.00;5005977;28;19929;-63
2023/01/28 12:16:01;;;;;;;;;;;;;;;8.43;57.84;102946.50;5005119;28;19922;-60
2023/01/28 12:18:26;;;;;;;;;;;;;;;8.70;60.85;102945.38;5007680;28;19917;-61
2023/01/28 12:20:59;;;;;;;;;;;;;;;10.24;56.90;102956.50;5007020;28;20025;-61
2023/01/28 12:23:35;;;;;;;;;;;;;;;11.10;52.26;102956.41;5010302;28;20371;-60
2023/01/28 12:26:08;;;;;;;;;;;;;;;10.63;56.07;102962.00;5010640;28;19913;-61
2023/01/28 12:28:33;;;;;;;;;;;;;;;9.53;54.66;102963.63;5006406;28;19928;-63
2023/01/28 12:31:22;;;;;;;;;;;;;;;9.21;54.13;102987.28;5008732;28;19918;-62
2023/01/28 12:34:05;;;;;;;;;;;;;;;8.07;53.57;102992.31;4990058;28;19921;-62
2023/01/28 12:36:33;;;;;;;;;;;;;;;6.78;57.37;103004.63;5011067;28;19959;-62
2023/01/28 12:39:10;;;;;;;;;;;;;;;6.15;59.35;103008.09;5008568;28;19933;-61
2023/01/28 12:41:39;;;;;;;;;;;;;;;5.35;61.60;103008.47;5023575;28;20029;-62
2023/01/28 12:44:08;;;;;;;;;;;;;;;5.09;63.02;103011.75;5009007;28;19921;-60
2023/01/28 12:46:36;;;;;;;;;;;;;;;4.58;65.25;103017.38;5011052;28;19928;-61
2023/01/28 12:49:05;;;;;;;;;;;;;;;4.66;64.95;103010.25;5009446;28;19980;-61
2023/01/28 12:51:33;;;;;;;;;;;;;;;3.90;67.25;103019.75;5008220;28;19925;-64
2023/01/28 12:54:05;;;;;;;;;;;;;;;3.67;69.42;103010.03;4996143;28;20016;-63
2023/01/28 12:56:30;;;;;;;;;;;;;;;4.02;69.01;103013.25;5009963;28;19914;-61
2023/01/28 12:58:57;;;;;;;;;;;;;;;3.57;70.78;103018.13;5008400;28;20012;-61
2023/01/28 13:01:29;;;;;;;;;;;;;;;3.61;70.83;103006.84;5009582;28;19972;-61
2023/01/28 13:04:00;;;;;;;;;;;;;;;3.69;71.46;103002.59;5009708;28;19917;-61
2023/01/28 13:06:43;;;;;;;;;;;;;;;3.76;71.88;103007.38;5009742;28;20352;-61
2023/01/28 13:09:19;;;;;;;;;;;;;;;3.84;71.75;103017.56;5010323;28;19981;-65
2023/01/28 13:11:45;;;;;;;;;;;;;;;4.32;69.15;102990.66;5007479;28;19922;-61
2023/01/28 13:14:11;;;;;;;;;;;;;;;4.11;69.64;102998.88;5009611;28;20004;-63
2023/01/28 13:16:36;;;;;;;;;;;;;;;4.24;70.63;102993.19;5009923;28;20288;-61